Thursday, September 1, 2016, 1:33 AM EDT

KIPT, Williamsport-lycoming County

Location: Montoursville, PA, United States Lat: 41.25
Local Time: 1:33 AM EDT ( 5:33 GMT) Lon: -76.917
Time Zone: US/Eastern Elev: 528 ft

Show me the last for .
Show Decoded

2016-09-01 00:54 METAR KIPT 010454Z AUTO 00000KT 10SM FEW065 SCT090 BKN110 21/19 A2990 RMK AO2
                 RAB03E33 SLP120 P0001 T02110189 402500172 =
2016-08-31 23:54 METAR KIPT 010354Z AUTO 00000KT 10SM BKN070 OVC090 21/19 A2990 RMK AO2 SLP121
                 T02110189 =
2016-08-31 22:54 METAR KIPT 010254Z AUTO 00000KT 10SM FEW044 SCT055 BKN070 21/19 A2991 RMK AO2
                 RAB39E51 SLP124 P0000 60000 T02110189 50004 =
2016-08-31 21:54 METAR KIPT 010154Z 29003KT 10SM BKN070 BKN080 OVC100 21/19 A2992 RMK AO2
                 RAB0058E11 SLP129 P0000 T02110189 =
2016-08-31 20:54 METAR KIPT 010054Z 19004KT 10SM BKN075 BKN090 OVC110 21/18 A2992 RMK AO2
                 RAB30E45 SLP128 P0000 T02110183 =
2016-08-31 19:54 METAR KIPT 312354Z 00000KT 10SM FEW120 23/18 A2989 RMK AO2 RAB33E49 SLP120 P0000
                 60000 T02280183 10250 20228 55002 =
2016-08-31 18:54 METAR KIPT 312254Z 00000KT 10SM CLR 23/18 A2989 RMK AO2 SLP119 T02330178 =
2016-08-31 17:54 METAR KIPT 312154Z 27006KT 10SM FEW110 24/18 A2990 RMK AO2 SLP121 T02390178 =
2016-08-31 16:54 METAR KIPT 312054Z 23003KT 10SM FEW110 24/18 A2990 RMK AO2 RAB23E32 SLP122 P0000
                 60000 T02440178 57017 =
2016-08-31 15:54 METAR KIPT 311954Z 13003KT 10SM OVC095 24/18 A2991 RMK AO2 RAB1859E41 SLP126
                 P0000 T02390183 =
2016-08-31 14:54 METAR KIPT 311854Z 28004KT 10SM BKN110 24/17 A2994 RMK AO2 RAE13 SLP135 P0000
                 T02440172 =
2016-08-31 13:54 METAR KIPT 311754Z 00000KT 10SM -RA FEW110 24/17 A2995 RMK AO2 RAB46 SLP139
                 P0000 60000 T02390167 10244 20189 58012 =
2016-08-31 12:54 METAR KIPT 311654Z 00000KT 10SM BKN110 24/17 A2997 RMK AO2 SLP144 T02390172 =
2016-08-31 11:54 METAR KIPT 311554Z 00000KT 10SM CLR 22/17 A2998 RMK AO2 SLP149 T02220172 =
2016-08-31 10:54 METAR KIPT 311454Z 00000KT 10SM FEW120 21/17 A2999 RMK AO2 RAB00E27 SLP151 P0000
                 60000 T02110172 56007 =
2016-08-31 09:54 METAR KIPT 311354Z 00000KT 10SM FEW110 21/17 A2999 RMK AO2 SLP151 T02060167 =
2016-08-31 08:54 METAR KIPT 311254Z 00000KT 10SM CLR 19/17 A3000 RMK AO2 SLP156 T01940167 =
2016-08-31 07:54 METAR KIPT 311154Z 34003KT 10SM CLR 19/16 A3001 RMK AO2 SLP159 T01890161 10189
                 20172 57004 =
2016-08-31 06:54 METAR KIPT 311054Z 00000KT 10SM CLR 18/16 A3001 RMK AO2 SLP160 T01780156 =
2016-08-31 05:54 METAR KIPT 310954Z AUTO 00000KT 10SM CLR 18/16 A3002 RMK AO2 SLP161 T01780156 =
2016-08-31 04:54 METAR KIPT 310854Z AUTO 00000KT 10SM CLR 18/16 A3002 RMK AO2 SLP163 T01780161
                 56008 =
2016-08-31 03:54 METAR KIPT 310754Z AUTO 00000KT 10SM CLR 18/16 A3002 RMK AO2 SLP163 T01830161 =
2016-08-31 02:54 METAR KIPT 310654Z AUTO 00000KT 10SM CLR 19/16 A3004 RMK AO2 SLP167 T01890161 =
2016-08-31 01:54 METAR KIPT 310554Z AUTO 00000KT 10SM CLR 19/16 A3004 RMK AO2 SLP170 T01890161
                 10256 20189 53000 =

Support USWX by starting your Amazon purchase here.